sensor_id;sensor_type;location;lat;lon;timestamp;temperature;humidity
32095;DHT22;18608;53.688;10.748;2022-07-29T00:00:13;13.70;99.90
32095;DHT22;18608;53.688;10.748;2022-07-29T00:02:39;13.80;99.90
32095;DHT22;18608;53.688;10.748;2022-07-29T00:05:05;13.60;99.90
32095;DHT22;18608;53.688;10.748;2022-07-29T00:07:31;13.60;99.90
32095;DHT22;18608;53.688;10.748;2022-07-29T00:09:56;13.60;99.90
32095;DHT22;18608;53.688;10.748;2022-07-29T00:12:23;13.70;99.90
32095;DHT22;18608;53.688;10.748;2022-07-29T00:14:52;13.70;99.90
32095;DHT22;18608;53.688;10.748;2022-07-29T00:17:18;13.60;99.90
32095;DHT22;18608;53.688;10.748;2022-07-29T00:19:43;13.60;99.90
32095;DHT22;18608;53.688;10.748;2022-07-29T00:22:09;13.70;99.90
32095;DHT22;18608;53.688;10.748;2022-07-29T00:24:34;13.60;99.90
32095;DHT22;18608;53.688;10.748;2022-07-29T00:27:00;13.60;99.90
32095;DHT22;18608;53.688;10.748;2022-07-29T00:29:26;13.60;99.90
32095;DHT22;18608;53.688;10.748;2022-07-29T00:31:51;13.40;99.90
32095;DHT22;18608;53.688;10.748;2022-07-29T00:34:17;13.40;99.90
32095;DHT22;18608;53.688;10.748;2022-07-29T00:37:01;13.30;99.90
32095;DHT22;18608;53.688;10.748;2022-07-29T00:39:26;13.50;99.90
32095;DHT22;18608;53.688;10.748;2022-07-29T00:41:52;13.40;99.90
32095;DHT22;18608;53.688;10.748;2022-07-29T00:44:18;13.40;99.90
32095;DHT22;18608;53.688;10.748;2022-07-29T00:46:43;13.40;99.90
32095;DHT22;18608;53.688;10.748;2022-07-29T00:49:09;13.50;99.90
32095;DHT22;18608;53.688;10.748;2022-07-29T00:51:38;13.50;99.90
32095;DHT22;18608;53.688;10.748;2022-07-29T00:54:05;13.40;99.90
32095;DHT22;18608;53.688;10.748;2022-07-29T00:56:31;13.40;99.90
32095;DHT22;18608;53.688;10.748;2022-07-29T00:58:58;13.50;99.90
32095;DHT22;18608;53.688;10.748;2022-07-29T01:01:24;13.50;99.90
32095;DHT22;18608;53.688;10.748;2022-07-29T01:03:49;13.40;99.90
32095;DHT22;18608;53.688;10.748;2022-07-29T01:06:19;13.50;99.90
32095;DHT22;18608;53.688;10.748;2022-07-29T01:08:45;13.50;99.90
32095;DHT22;18608;53.688;10.748;2022-07-29T01:11:12;13.40;99.90
32095;DHT22;18608;53.688;10.748;2022-07-29T01:13:38;13.30;99.90
32095;DHT22;18608;53.688;10.748;2022-07-29T01:16:10;13.30;99.90
32095;DHT22;18608;53.688;10.748;2022-07-29T01:18:43;13.20;99.90
32095;DHT22;18608;53.688;10.748;2022-07-29T01:21:34;13.10;99.90
32095;DHT22;18608;53.688;10.748;2022-07-29T01:29:36;12.90;99.90
32095;DHT22;18608;53.688;10.748;2022-07-29T01:32:08;12.90;99.90
32095;DHT22;18608;53.688;10.748;2022-07-29T01:34:41;12.80;99.90
32095;DHT22;18608;53.688;10.748;2022-07-29T01:37:17;12.50;99.90
32095;DHT22;18608;53.688;10.748;2022-07-29T01:39:45;12.70;99.90
32095;DHT22;18608;53.688;10.748;2022-07-29T01:45:18;12.70;99.90
32095;DHT22;18608;53.688;10.748;2022-07-29T01:50:49;12.80;99.90
32095;DHT22;18608;53.688;10.748;2022-07-29T01:53:38;12.80;99.90
32095;DHT22;18608;53.688;10.748;2022-07-29T01:56:06;12.80;99.90
32095;DHT22;18608;53.688;10.748;2022-07-29T01:58:35;12.70;99.90
32095;DHT22;18608;53.688;10.748;2022-07-29T02:01:04;12.80;99.90
32095;DHT22;18608;53.688;10.748;2022-07-29T02:03:32;12.80;99.90
32095;DHT22;18608;53.688;10.748;2022-07-29T02:06:00;12.90;99.90
32095;DHT22;18608;53.688;10.748;2022-07-29T02:08:26;12.80;99.90
32095;DHT22;18608;53.688;10.748;2022-07-29T02:10:54;12.80;99.90
32095;DHT22;18608;53.688;10.748;2022-07-29T02:13:21;12.80;99.90
32095;DHT22;18608;53.688;10.748;2022-07-29T02:15:50;12.80;99.90
32095;DHT22;18608;53.688;10.748;2022-07-29T02:18:18;12.80;99.90
32095;DHT22;18608;53.688;10.748;2022-07-29T02:20:48;12.80;99.90
32095;DHT22;18608;53.688;10.748;2022-07-29T02:23:20;12.90;99.90
32095;DHT22;18608;53.688;10.748;2022-07-29T02:25:49;12.80;99.90
32095;DHT22;18608;53.688;10.748;2022-07-29T02:28:16;12.80;99.90
32095;DHT22;18608;53.688;10.748;2022-07-29T02:30:43;12.80;99.90
32095;DHT22;18608;53.688;10.748;2022-07-29T02:33:12;12.80;99.90
32095;DHT22;18608;53.688;10.748;2022-07-29T02:35:40;12.70;99.90
32095;DHT22;18608;53.688;10.748;2022-07-29T02:38:08;12.70;99.90
32095;DHT22;18608;53.688;10.748;2022-07-29T02:40:53;12.70;99.90
32095;DHT22;18608;53.688;10.748;2022-07-29T02:43:21;12.70;99.90
32095;DHT22;18608;53.688;10.748;2022-07-29T02:45:50;12.60;99.90
32095;DHT22;18608;53.688;10.748;2022-07-29T02:48:18;12.60;99.90
32095;DHT22;18608;53.688;10.748;2022-07-29T02:50:58;12.60;99.90
32095;DHT22;18608;53.688;10.748;2022-07-29T02:53:27;12.60;99.90
32095;DHT22;18608;53.688;10.748;2022-07-29T02:55:59;12.70;99.90
32095;DHT22;18608;53.688;10.748;2022-07-29T02:58:29;12.70;99.90
32095;DHT22;18608;53.688;10.748;2022-07-29T03:00:59;12.70;99.90
32095;DHT22;18608;53.688;10.748;2022-07-29T03:03:30;12.70;99.90
32095;DHT22;18608;53.688;10.748;2022-07-29T03:05:57;12.70;99.90
32095;DHT22;18608;53.688;10.748;2022-07-29T03:08:25;12.90;99.90
32095;DHT22;18608;53.688;10.748;2022-07-29T03:10:53;12.80;99.90
32095;DHT22;18608;53.688;10.748;2022-07-29T03:13:19;12.80;99.90
32095;DHT22;18608;53.688;10.748;2022-07-29T03:15:45;12.80;99.90
32095;DHT22;18608;53.688;10.748;2022-07-29T03:18:12;13.00;99.90
32095;DHT22;18608;53.688;10.748;2022-07-29T03:20:38;12.80;99.90
32095;DHT22;18608;53.688;10.748;2022-07-29T03:23:04;12.70;99.90
32095;DHT22;18608;53.688;10.748;2022-07-29T03:25:30;12.80;99.90
32095;DHT22;18608;53.688;10.748;2022-07-29T03:27:56;12.70;99.90
32095;DHT22;18608;53.688;10.748;2022-07-29T03:30:22;12.70;99.90
32095;DHT22;18608;53.688;10.748;2022-07-29T03:32:49;12.70;99.90
32095;DHT22;18608;53.688;10.748;2022-07-29T03:35:15;12.70;99.90
32095;DHT22;18608;53.688;10.748;2022-07-29T03:37:42;12.80;99.90
32095;DHT22;18608;53.688;10.748;2022-07-29T03:40:10;12.80;99.90
32095;DHT22;18608;53.688;10.748;2022-07-29T03:42:39;12.80;99.90
32095;DHT22;18608;53.688;10.748;2022-07-29T03:45:07;12.90;99.90
32095;DHT22;18608;53.688;10.748;2022-07-29T03:47:37;12.90;99.90
32095;DHT22;18608;53.688;10.748;2022-07-29T03:50:07;12.90;99.90
32095;DHT22;18608;53.688;10.748;2022-07-29T03:52:34;12.80;99.90
32095;DHT22;18608;53.688;10.748;2022-07-29T03:55:01;12.80;99.90
32095;DHT22;18608;53.688;10.748;2022-07-29T03:57:29;13.00;99.90
32095;DHT22;18608;53.688;10.748;2022-07-29T03:59:56;12.90;99.90
32095;DHT22;18608;53.688;10.748;2022-07-29T04:02:22;12.80;99.90
32095;DHT22;18608;53.688;10.748;2022-07-29T04:04:48;12.70;99.90
32095;DHT22;18608;53.688;10.748;2022-07-29T04:07:15;12.70;99.90
32095;DHT22;18608;53.688;10.748;2022-07-29T04:09:41;12.70;99.90
32095;DHT22;18608;53.688;10.748;2022-07-29T04:12:07;12.80;99.90
32095;DHT22;18608;53.688;10.748;2022-07-29T04:14:33;12.80;99.90
32095;DHT22;18608;53.688;10.748;2022-07-29T04:17:00;12.80;99.90
32095;DHT22;18608;53.688;10.748;2022-07-29T04:19:25;12.70;99.90
32095;DHT22;18608;53.688;10.748;2022-07-29T04:21:51;12.90;99.90
32095;DHT22;18608;53.688;10.748;2022-07-29T04:24:17;12.90;99.90
32095;DHT22;18608;53.688;10.748;2022-07-29T04:26:43;13.00;99.90
32095;DHT22;18608;53.688;10.748;2022-07-29T04:29:09;12.90;99.90
32095;DHT22;18608;53.688;10.748;2022-07-29T04:31:34;13.00;99.90
32095;DHT22;18608;53.688;10.748;2022-07-29T04:34:00;13.10;99.90
32095;DHT22;18608;53.688;10.748;2022-07-29T04:36:25;13.20;99.90
32095;DHT22;18608;53.688;10.748;2022-07-29T04:38:51;13.20;99.90
32095;DHT22;18608;53.688;10.748;2022-07-29T04:41:16;13.20;99.90
32095;DHT22;18608;53.688;10.748;2022-07-29T04:43:42;13.40;99.90
32095;DHT22;18608;53.688;10.748;2022-07-29T04:46:08;13.50;99.90
32095;DHT22;18608;53.688;10.748;2022-07-29T04:48:33;13.50;99.90
32095;DHT22;18608;53.688;10.748;2022-07-29T04:50:59;13.40;99.90
32095;DHT22;18608;53.688;10.748;2022-07-29T04:53:25;13.50;99.90
32095;DHT22;18608;53.688;10.748;2022-07-29T04:55:50;13.50;99.90
32095;DHT22;18608;53.688;10.748;2022-07-29T04:58:16;13.50;99.90
32095;DHT22;18608;53.688;10.748;2022-07-29T05:00:42;13.50;99.90
32095;DHT22;18608;53.688;10.748;2022-07-29T05:03:07;13.50;99.90
32095;DHT22;18608;53.688;10.748;2022-07-29T05:05:33;13.60;99.90
32095;DHT22;18608;53.688;10.748;2022-07-29T05:07:58;13.70;99.90
32095;DHT22;18608;53.688;10.748;2022-07-29T05:10:24;13.70;99.90
32095;DHT22;18608;53.688;10.748;2022-07-29T05:12:50;13.80;99.90
32095;DHT22;18608;53.688;10.748;2022-07-29T05:15:16;13.70;99.90
32095;DHT22;18608;53.688;10.748;2022-07-29T05:17:43;13.70;99.90
32095;DHT22;18608;53.688;10.748;2022-07-29T05:20:09;13.80;99.90
32095;DHT22;18608;53.688;10.748;2022-07-29T05:22:34;14.00;99.90
32095;DHT22;18608;53.688;10.748;2022-07-29T05:25:00;14.00;99.90
32095;DHT22;18608;53.688;10.748;2022-07-29T05:27:26;14.40;99.90
32095;DHT22;18608;53.688;10.748;2022-07-29T05:29:51;14.60;99.90
32095;DHT22;18608;53.688;10.748;2022-07-29T05:32:17;14.80;99.90
32095;DHT22;18608;53.688;10.748;2022-07-29T05:34:42;14.90;99.90
32095;DHT22;18608;53.688;10.748;2022-07-29T05:37:08;14.90;99.90
32095;DHT22;18608;53.688;10.748;2022-07-29T05:39:34;14.90;99.90
32095;DHT22;18608;53.688;10.748;2022-07-29T05:41:59;15.00;99.90
32095;DHT22;18608;53.688;10.748;2022-07-29T05:44:25;15.10;99.90
32095;DHT22;18608;53.688;10.748;2022-07-29T05:46:51;15.10;99.90
32095;DHT22;18608;53.688;10.748;2022-07-29T05:49:16;15.30;99.90
32095;DHT22;18608;53.688;10.748;2022-07-29T05:51:42;15.60;99.90
32095;DHT22;18608;53.688;10.748;2022-07-29T05:54:07;15.70;99.90
32095;DHT22;18608;53.688;10.748;2022-07-29T05:56:36;15.60;99.90
32095;DHT22;18608;53.688;10.748;2022-07-29T05:59:02;15.60;99.90
32095;DHT22;18608;53.688;10.748;2022-07-29T06:01:27;15.70;99.90
32095;DHT22;18608;53.688;10.748;2022-07-29T06:03:53;15.90;99.90
32095;DHT22;18608;53.688;10.748;2022-07-29T06:06:19;16.10;99.90
32095;DHT22;18608;53.688;10.748;2022-07-29T06:08:44;16.20;99.90
32095;DHT22;18608;53.688;10.748;2022-07-29T06:11:10;16.30;99.90
32095;DHT22;18608;53.688;10.748;2022-07-29T06:13:35;16.20;99.90
32095;DHT22;18608;53.688;10.748;2022-07-29T06:16:01;16.20;99.90
32095;DHT22;18608;53.688;10.748;2022-07-29T06:18:26;16.50;99.90
32095;DHT22;18608;53.688;10.748;2022-07-29T06:20:53;16.70;99.90
32095;DHT22;18608;53.688;10.748;2022-07-29T06:23:19;16.70;99.90
32095;DHT22;18608;53.688;10.748;2022-07-29T06:25:45;16.90;99.90
32095;DHT22;18608;53.688;10.748;2022-07-29T06:28:11;17.10;99.90
32095;DHT22;18608;53.688;10.748;2022-07-29T06:30:37;17.20;99.90
32095;DHT22;18608;53.688;10.748;2022-07-29T06:33:03;17.20;99.90
32095;DHT22;18608;53.688;10.748;2022-07-29T06:35:29;17.10;99.90
32095;DHT22;18608;53.688;10.748;2022-07-29T06:37:54;17.00;99.90
32095;DHT22;18608;53.688;10.748;2022-07-29T06:40:20;17.00;99.90
32095;DHT22;18608;53.688;10.748;2022-07-29T06:43:04;17.00;99.90
32095;DHT22;18608;53.688;10.748;2022-07-29T06:45:33;17.30;99.90
32095;DHT22;18608;53.688;10.748;2022-07-29T06:47:59;17.60;99.90
32095;DHT22;18608;53.688;10.748;2022-07-29T06:50:25;17.90;99.90
32095;DHT22;18608;53.688;10.748;2022-07-29T06:52:50;17.80;99.90
32095;DHT22;18608;53.688;10.748;2022-07-29T06:55:16;17.80;99.90
32095;DHT22;18608;53.688;10.748;2022-07-29T06:57:44;17.80;99.90
32095;DHT22;18608;53.688;10.748;2022-07-29T07:00:10;18.00;99.90
32095;DHT22;18608;53.688;10.748;2022-07-29T07:02:36;17.90;99.90
32095;DHT22;18608;53.688;10.748;2022-07-29T07:05:02;17.90;99.90
32095;DHT22;18608;53.688;10.748;2022-07-29T07:07:27;18.20;99.90
32095;DHT22;18608;53.688;10.748;2022-07-29T07:09:53;19.20;99.90
32095;DHT22;18608;53.688;10.748;2022-07-29T07:29:21;19.80;99.90
32095;DHT22;18608;53.688;10.748;2022-07-29T07:51:15;19.80;99.90
32095;DHT22;18608;53.688;10.748;2022-07-29T07:53:40;19.80;99.90
32095;DHT22;18608;53.688;10.748;2022-07-29T07:56:06;20.00;99.90
32095;DHT22;18608;53.688;10.748;2022-07-29T08:00:58;20.30;99.90
32095;DHT22;18608;53.688;10.748;2022-07-29T08:03:24;20.90;99.90
32095;DHT22;18608;53.688;10.748;2022-07-29T08:10:45;21.80;99.90
32095;DHT22;18608;53.688;10.748;2022-07-29T08:13:18;21.80;99.90
32095;DHT22;18608;53.688;10.748;2022-07-29T08:20:37;21.00;99.90
32095;DHT22;18608;53.688;10.748;2022-07-29T08:23:05;21.00;99.90
32095;DHT22;18608;53.688;10.748;2022-07-29T08:25:40;21.30;99.90
32095;DHT22;18608;53.688;10.748;2022-07-29T08:30:33;21.30;99.90
32095;DHT22;18608;53.688;10.748;2022-07-29T08:32:59;20.50;99.90
32095;DHT22;18608;53.688;10.748;2022-07-29T08:35:25;20.80;99.90
32095;DHT22;18608;53.688;10.748;2022-07-29T08:37:52;20.90;99.90
32095;DHT22;18608;53.688;10.748;2022-07-29T08:40:19;20.90;99.90
32095;DHT22;18608;53.688;10.748;2022-07-29T08:42:46;20.80;99.90
32095;DHT22;18608;53.688;10.748;2022-07-29T08:45:12;21.80;99.90
32095;DHT22;18608;53.688;10.748;2022-07-29T08:47:43;22.10;99.90
32095;DHT22;18608;53.688;10.748;2022-07-29T08:50:10;22.20;99.90
32095;DHT22;18608;53.688;10.748;2022-07-29T08:52:37;23.30;99.90
32095;DHT22;18608;53.688;10.748;2022-07-29T08:55:04;23.60;99.90
32095;DHT22;18608;53.688;10.748;2022-07-29T08:57:30;23.60;99.90
32095;DHT22;18608;53.688;10.748;2022-07-29T09:00:00;23.60;99.90
32095;DHT22;18608;53.688;10.748;2022-07-29T09:02:28;23.60;99.90
32095;DHT22;18608;53.688;10.748;2022-07-29T09:04:55;23.60;99.90
32095;DHT22;18608;53.688;10.748;2022-07-29T09:07:22;23.70;99.90
32095;DHT22;18608;53.688;10.748;2022-07-29T09:09:48;23.80;99.90
32095;DHT22;18608;53.688;10.748;2022-07-29T09:12:13;23.70;99.90
32095;DHT22;18608;53.688;10.748;2022-07-29T09:14:40;23.80;99.90
32095;DHT22;18608;53.688;10.748;2022-07-29T09:17:06;24.00;99.90
32095;DHT22;18608;53.688;10.748;2022-07-29T09:19:34;24.00;99.90
32095;DHT22;18608;53.688;10.748;2022-07-29T09:22:01;23.80;99.90
32095;DHT22;18608;53.688;10.748;2022-07-29T09:24:44;23.90;99.90
32095;DHT22;18608;53.688;10.748;2022-07-29T09:27:22;24.50;99.90
32095;DHT22;18608;53.688;10.748;2022-07-29T09:30:05;24.30;99.90
32095;DHT22;18608;53.688;10.748;2022-07-29T09:32:32;24.80;99.90
32095;DHT22;18608;53.688;10.748;2022-07-29T09:35:19;24.30;99.90
32095;DHT22;18608;53.688;10.748;2022-07-29T09:37:46;24.30;99.90
32095;DHT22;18608;53.688;10.748;2022-07-29T09:40:20;24.50;99.90
32095;DHT22;18608;53.688;10.748;2022-07-29T09:42:46;24.80;99.90
32095;DHT22;18608;53.688;10.748;2022-07-29T09:45:13;25.00;99.90
32095;DHT22;18608;53.688;10.748;2022-07-29T09:47:51;24.40;99.90
32095;DHT22;18608;53.688;10.748;2022-07-29T09:50:16;24.70;99.90
32095;DHT22;18608;53.688;10.748;2022-07-29T09:52:47;25.00;99.90
32095;DHT22;18608;53.688;10.748;2022-07-29T09:55:13;25.50;99.90
32095;DHT22;18608;53.688;10.748;2022-07-29T09:57:39;25.30;99.90
32095;DHT22;18608;53.688;10.748;2022-07-29T10:00:07;24.70;99.90
32095;DHT22;18608;53.688;10.748;2022-07-29T10:02:36;25.00;99.90
32095;DHT22;18608;53.688;10.748;2022-07-29T10:05:03;25.50;99.90
32095;DHT22;18608;53.688;10.748;2022-07-29T10:07:49;26.10;99.90
32095;DHT22;18608;53.688;10.748;2022-07-29T10:12:50;25.60;99.90
32095;DHT22;18608;53.688;10.748;2022-07-29T10:15:16;24.80;99.90
32095;DHT22;18608;53.688;10.748;2022-07-29T10:17:42;24.50;99.90
32095;DHT22;18608;53.688;10.748;2022-07-29T10:20:08;24.60;99.90
32095;DHT22;18608;53.688;10.748;2022-07-29T10:22:34;25.30;99.90
32095;DHT22;18608;53.688;10.748;2022-07-29T10:25:00;25.80;99.90
32095;DHT22;18608;53.688;10.748;2022-07-29T10:27:26;26.40;99.90
32095;DHT22;18608;53.688;10.748;2022-07-29T10:29:53;27.20;99.90
32095;DHT22;18608;53.688;10.748;2022-07-29T10:38:04;27.40;99.90
32095;DHT22;18608;53.688;10.748;2022-07-29T10:43:42;27.40;99.90
32095;DHT22;18608;53.688;10.748;2022-07-29T10:46:08;27.30;99.90
32095;DHT22;18608;53.688;10.748;2022-07-29T10:48:34;27.30;99.90
32095;DHT22;18608;53.688;10.748;2022-07-29T10:51:01;26.80;99.90
32095;DHT22;18608;53.688;10.748;2022-07-29T10:54:05;27.20;99.90
32095;DHT22;18608;53.688;10.748;2022-07-29T10:56:32;27.40;99.90
32095;DHT22;18608;53.688;10.748;2022-07-29T11:01:52;27.70;99.90
32095;DHT22;18608;53.688;10.748;2022-07-29T11:07:09;27.40;98.90
32095;DHT22;18608;53.688;10.748;2022-07-29T11:09:34;27.60;99.60
32095;DHT22;18608;53.688;10.748;2022-07-29T11:12:00;27.90;98.60
32095;DHT22;18608;53.688;10.748;2022-07-29T11:17:16;27.00;99.70
32095;DHT22;18608;53.688;10.748;2022-07-29T11:19:42;27.60;99.90
32095;DHT22;18608;53.688;10.748;2022-07-29T11:22:09;27.50;99.10
32095;DHT22;18608;53.688;10.748;2022-07-29T11:24:35;27.80;98.40
32095;DHT22;18608;53.688;10.748;2022-07-29T11:27:19;27.80;98.30
32095;DHT22;18608;53.688;10.748;2022-07-29T11:29:49;27.80;98.50
32095;DHT22;18608;53.688;10.748;2022-07-29T11:32:16;27.30;98.70
32095;DHT22;18608;53.688;10.748;2022-07-29T11:34:45;27.30;99.10
32095;DHT22;18608;53.688;10.748;2022-07-29T11:39:45;27.10;98.90
32095;DHT22;18608;53.688;10.748;2022-07-29T11:45:02;26.60;98.90
32095;DHT22;18608;53.688;10.748;2022-07-29T11:47:32;26.40;98.90
32095;DHT22;18608;53.688;10.748;2022-07-29T11:49:59;25.80;99.60
32095;DHT22;18608;53.688;10.748;2022-07-29T11:52:45;25.80;99.80
32095;DHT22;18608;53.688;10.748;2022-07-29T11:55:16;26.40;99.80
32095;DHT22;18608;53.688;10.748;2022-07-29T11:57:54;26.80;99.80
32095;DHT22;18608;53.688;10.748;2022-07-29T12:00:23;26.60;99.20
32095;DHT22;18608;53.688;10.748;2022-07-29T12:02:48;26.40;99.90
32095;DHT22;18608;53.688;10.748;2022-07-29T12:05:14;26.20;99.40
32095;DHT22;18608;53.688;10.748;2022-07-29T12:07:40;25.90;99.80
32095;DHT22;18608;53.688;10.748;2022-07-29T12:10:07;26.20;99.30
32095;DHT22;18608;53.688;10.748;2022-07-29T12:12:34;26.30;97.90
32095;DHT22;18608;53.688;10.748;2022-07-29T12:15:16;26.40;98.40
32095;DHT22;18608;53.688;10.748;2022-07-29T12:17:44;26.70;98.80
32095;DHT22;18608;53.688;10.748;2022-07-29T12:20:09;26.80;98.10
32095;DHT22;18608;53.688;10.748;2022-07-29T12:22:38;26.80;98.20
32095;DHT22;18608;53.688;10.748;2022-07-29T12:25:12;26.50;99.90
32095;DHT22;18608;53.688;10.748;2022-07-29T12:27:41;26.20;99.90
32095;DHT22;18608;53.688;10.748;2022-07-29T12:30:09;25.80;99.90
32095;DHT22;18608;53.688;10.748;2022-07-29T12:32:38;25.60;99.90
32095;DHT22;18608;53.688;10.748;2022-07-29T12:35:05;25.40;99.90
32095;DHT22;18608;53.688;10.748;2022-07-29T12:37:35;25.20;99.90
32095;DHT22;18608;53.688;10.748;2022-07-29T12:40:03;24.80;99.90
32095;DHT22;18608;53.688;10.748;2022-07-29T12:42:30;24.80;99.90
32095;DHT22;18608;53.688;10.748;2022-07-29T12:44:56;24.80;99.90
32095;DHT22;18608;53.688;10.748;2022-07-29T12:47:21;24.60;99.90
32095;DHT22;18608;53.688;10.748;2022-07-29T12:49:48;24.40;99.90
32095;DHT22;18608;53.688;10.748;2022-07-29T12:52:24;24.50;99.90
32095;DHT22;18608;53.688;10.748;2022-07-29T12:54:50;24.60;99.90
32095;DHT22;18608;53.688;10.748;2022-07-29T12:57:16;25.00;99.90
32095;DHT22;18608;53.688;10.748;2022-07-29T12:59:41;24.80;99.90
32095;DHT22;18608;53.688;10.748;2022-07-29T13:02:21;24.90;99.90
32095;DHT22;18608;53.688;10.748;2022-07-29T13:04:59;24.60;99.90
32095;DHT22;18608;53.688;10.748;2022-07-29T13:07:27;24.80;99.90
32095;DHT22;18608;53.688;10.748;2022-07-29T13:10:09;24.80;99.90
32095;DHT22;18608;53.688;10.748;2022-07-29T13:12:35;24.70;99.90
32095;DHT22;18608;53.688;10.748;2022-07-29T13:15:15;24.80;99.90
32095;DHT22;18608;53.688;10.748;2022-07-29T13:17:42;24.40;99.90
32095;DHT22;18608;53.688;10.748;2022-07-29T13:20:10;24.30;99.90
32095;DHT22;18608;53.688;10.748;2022-07-29T13:22:38;24.30;99.90
32095;DHT22;18608;53.688;10.748;2022-07-29T13:25:05;24.50;99.90
32095;DHT22;18608;53.688;10.748;2022-07-29T13:27:35;24.60;99.90
32095;DHT22;18608;53.688;10.748;2022-07-29T13:30:04;24.80;99.90
32095;DHT22;18608;53.688;10.748;2022-07-29T13:32:30;24.90;99.90
32095;DHT22;18608;53.688;10.748;2022-07-29T13:34:58;24.90;99.90
32095;DHT22;18608;53.688;10.748;2022-07-29T13:37:24;25.00;99.90
32095;DHT22;18608;53.688;10.748;2022-07-29T13:39:51;24.80;99.90
32095;DHT22;18608;53.688;10.748;2022-07-29T13:42:17;24.50;99.90
32095;DHT22;18608;53.688;10.748;2022-07-29T13:44:43;24.40;99.90
32095;DHT22;18608;53.688;10.748;2022-07-29T13:47:09;24.40;99.90
32095;DHT22;18608;53.688;10.748;2022-07-29T13:49:34;24.20;99.90
32095;DHT22;18608;53.688;10.748;2022-07-29T13:52:01;24.10;99.90
32095;DHT22;18608;53.688;10.748;2022-07-29T13:54:26;24.00;99.90
32095;DHT22;18608;53.688;10.748;2022-07-29T13:56:52;24.10;99.90
32095;DHT22;18608;53.688;10.748;2022-07-29T13:59:17;24.10;99.90
32095;DHT22;18608;53.688;10.748;2022-07-29T14:01:43;23.90;99.90
32095;DHT22;18608;53.688;10.748;2022-07-29T14:04:10;24.00;99.90
32095;DHT22;18608;53.688;10.748;2022-07-29T14:06:36;24.40;99.90
32095;DHT22;18608;53.688;10.748;2022-07-29T14:09:02;24.50;99.90
32095;DHT22;18608;53.688;10.748;2022-07-29T14:11:28;24.40;99.90
32095;DHT22;18608;53.688;10.748;2022-07-29T14:13:53;24.30;99.90
32095;DHT22;18608;53.688;10.748;2022-07-29T14:16:19;24.00;99.90
32095;DHT22;18608;53.688;10.748;2022-07-29T14:18:44;24.10;99.90
32095;DHT22;18608;53.688;10.748;2022-07-29T14:21:10;24.30;99.90
32095;DHT22;18608;53.688;10.748;2022-07-29T14:23:36;24.40;99.90
32095;DHT22;18608;53.688;10.748;2022-07-29T14:26:02;24.30;99.90
32095;DHT22;18608;53.688;10.748;2022-07-29T14:28:28;23.90;99.90
32095;DHT22;18608;53.688;10.748;2022-07-29T14:30:54;23.80;99.90
32095;DHT22;18608;53.688;10.748;2022-07-29T14:33:19;23.50;99.90
32095;DHT22;18608;53.688;10.748;2022-07-29T14:35:45;23.70;99.90
32095;DHT22;18608;53.688;10.748;2022-07-29T14:38:11;23.80;99.90
32095;DHT22;18608;53.688;10.748;2022-07-29T14:40:36;23.80;99.90
32095;DHT22;18608;53.688;10.748;2022-07-29T14:43:03;23.50;99.90
32095;DHT22;18608;53.688;10.748;2022-07-29T14:45:29;23.30;99.90
32095;DHT22;18608;53.688;10.748;2022-07-29T14:47:55;23.50;99.90
32095;DHT22;18608;53.688;10.748;2022-07-29T14:50:20;23.50;99.90
32095;DHT22;18608;53.688;10.748;2022-07-29T14:52:46;23.40;99.90
32095;DHT22;18608;53.688;10.748;2022-07-29T14:55:11;23.50;99.90
32095;DHT22;18608;53.688;10.748;2022-07-29T14:57:37;23.70;99.90
32095;DHT22;18608;53.688;10.748;2022-07-29T15:00:07;23.70;99.90
32095;DHT22;18608;53.688;10.748;2022-07-29T15:02:33;23.70;99.90
32095;DHT22;18608;53.688;10.748;2022-07-29T15:04:59;23.90;99.90
32095;DHT22;18608;53.688;10.748;2022-07-29T15:07:24;24.10;99.90
32095;DHT22;18608;53.688;10.748;2022-07-29T15:09:50;24.10;99.90
32095;DHT22;18608;53.688;10.748;2022-07-29T15:12:16;24.10;99.90
32095;DHT22;18608;53.688;10.748;2022-07-29T15:14:41;23.90;99.90
32095;DHT22;18608;53.688;10.748;2022-07-29T15:17:07;23.60;99.90
32095;DHT22;18608;53.688;10.748;2022-07-29T15:19:33;23.50;99.90
32095;DHT22;18608;53.688;10.748;2022-07-29T15:21:59;23.80;99.90
32095;DHT22;18608;53.688;10.748;2022-07-29T15:24:24;23.80;99.90
32095;DHT22;18608;53.688;10.748;2022-07-29T15:26:50;23.90;99.90
32095;DHT22;18608;53.688;10.748;2022-07-29T15:29:16;23.90;99.90
32095;DHT22;18608;53.688;10.748;2022-07-29T15:31:42;24.00;99.90
32095;DHT22;18608;53.688;10.748;2022-07-29T15:34:08;24.10;99.90
32095;DHT22;18608;53.688;10.748;2022-07-29T15:36:33;24.10;99.90
32095;DHT22;18608;53.688;10.748;2022-07-29T15:38:59;24.40;99.90
32095;DHT22;18608;53.688;10.748;2022-07-29T15:41:25;24.30;99.90
32095;DHT22;18608;53.688;10.748;2022-07-29T15:43:50;24.20;99.90
32095;DHT22;18608;53.688;10.748;2022-07-29T15:46:17;24.20;99.90
32095;DHT22;18608;53.688;10.748;2022-07-29T15:49:03;24.30;99.90
32095;DHT22;18608;53.688;10.748;2022-07-29T15:51:29;24.40;99.90
32095;DHT22;18608;53.688;10.748;2022-07-29T15:53:54;24.30;99.90
32095;DHT22;18608;53.688;10.748;2022-07-29T15:56:21;24.10;99.90
32095;DHT22;18608;53.688;10.748;2022-07-29T15:58:47;23.90;99.90
32095;DHT22;18608;53.688;10.748;2022-07-29T16:01:12;23.50;99.90
32095;DHT22;18608;53.688;10.748;2022-07-29T16:03:38;23.50;99.90
32095;DHT22;18608;53.688;10.748;2022-07-29T16:06:04;23.50;99.90
32095;DHT22;18608;53.688;10.748;2022-07-29T16:08:30;23.60;99.90
32095;DHT22;18608;53.688;10.748;2022-07-29T16:10:55;23.20;99.90
32095;DHT22;18608;53.688;10.748;2022-07-29T16:13:21;23.30;99.90
32095;DHT22;18608;53.688;10.748;2022-07-29T16:15:47;23.10;99.90
32095;DHT22;18608;53.688;10.748;2022-07-29T16:18:12;23.10;99.90
32095;DHT22;18608;53.688;10.748;2022-07-29T16:20:39;23.10;99.90
32095;DHT22;18608;53.688;10.748;2022-07-29T16:23:06;23.10;99.90
32095;DHT22;18608;53.688;10.748;2022-07-29T16:25:34;23.20;99.90
32095;DHT22;18608;53.688;10.748;2022-07-29T16:27:59;23.40;99.90
32095;DHT22;18608;53.688;10.748;2022-07-29T16:30:25;23.50;99.90
32095;DHT22;18608;53.688;10.748;2022-07-29T16:32:51;23.60;99.90
32095;DHT22;18608;53.688;10.748;2022-07-29T16:35:16;23.50;99.90
32095;DHT22;18608;53.688;10.748;2022-07-29T16:37:42;23.40;99.90
32095;DHT22;18608;53.688;10.748;2022-07-29T16:40:07;23.40;99.90
32095;DHT22;18608;53.688;10.748;2022-07-29T16:42:34;23.10;99.90
32095;DHT22;18608;53.688;10.748;2022-07-29T16:45:00;23.20;99.90